createdAt,value
2022-10-09T00:00:21.702Z,93628.91
2022-10-09T00:03:05.737Z,93624.25
2022-10-09T00:05:48.405Z,93628.72
2022-10-09T00:08:31.417Z,93637.34
2022-10-09T00:11:15.077Z,93634.09
2022-10-09T00:13:58.451Z,93639.59
2022-10-09T00:16:41.444Z,93644.13
2022-10-09T00:19:25.539Z,93642.44
2022-10-09T00:22:08.216Z,93641.31
2022-10-09T00:24:50.876Z,93648.44
2022-10-09T00:27:33.614Z,93645.16
2022-10-09T00:30:16.452Z,93642.94
2022-10-09T00:32:59.107Z,93642.63
2022-10-09T00:35:43.317Z,93645.22
2022-10-09T00:38:26.058Z,93645.44
2022-10-09T00:41:08.898Z,93642.09
2022-10-09T00:43:52.637Z,93645.00
2022-10-09T00:46:37.991Z,93646.63
2022-10-09T00:49:25.745Z,93643.13
2022-10-09T00:52:09.858Z,93643.72
2022-10-09T00:54:52.911Z,93639.19
2022-10-09T00:57:36.146Z,93640.63
2022-10-09T01:00:18.793Z,93637.47
2022-10-09T01:03:01.512Z,93629.09
2022-10-09T01:05:48.270Z,93628.25
2022-10-09T01:08:36.929Z,93628.84
2022-10-09T01:11:23.673Z,93624.31
2022-10-09T01:14:13.161Z,93622.44
2022-10-09T01:16:59.081Z,93617.31
2022-10-09T01:19:48.305Z,93618.25
2022-10-09T01:22:35.869Z,93614.88
2022-10-09T01:25:24.844Z,93614.28
2022-10-09T01:28:10.522Z,93606.28
2022-10-09T01:30:53.264Z,93609.75
2022-10-09T01:33:36.650Z,93607.06
2022-10-09T01:36:20.423Z,93611.25
2022-10-09T01:39:04.414Z,93611.41
2022-10-09T01:41:47.627Z,93610.56
2022-10-09T01:44:32.840Z,93608.25
2022-10-09T01:47:16.566Z,93608.59
2022-10-09T01:50:02.392Z,93602.69
2022-10-09T01:52:48.085Z,93605.00
2022-10-09T01:55:38.096Z,93599.88
2022-10-09T01:58:23.247Z,93601.75
2022-10-09T02:01:09.059Z,93608.41
2022-10-09T02:03:53.380Z,93595.59
2022-10-09T02:06:36.903Z,93595.47
2022-10-09T02:09:20.014Z,93595.47
2022-10-09T02:12:06.697Z,93599.53
2022-10-09T02:14:49.883Z,93591.75
2022-10-09T02:17:36.679Z,93592.53
2022-10-09T02:20:21.656Z,93596.88
2022-10-09T02:23:06.144Z,93585.78
2022-10-09T02:25:48.967Z,93588.25
2022-10-09T02:28:31.728Z,93588.94
2022-10-09T02:31:18.468Z,93582.06
2022-10-09T02:34:03.849Z,93585.44
2022-10-09T02:36:46.946Z,93586.50
2022-10-09T02:39:29.600Z,93580.91
2022-10-09T02:42:12.335Z,93583.94
2022-10-09T02:44:54.947Z,93579.66
2022-10-09T02:47:37.680Z,93578.81
2022-10-09T02:50:21.784Z,93583.00
2022-10-09T02:53:04.530Z,93583.00
2022-10-09T02:55:47.313Z,93575.31
2022-10-09T02:58:31.309Z,93586.50
2022-10-09T03:01:14.307Z,93588.25
2022-10-09T03:03:56.960Z,93584.88
2022-10-09T03:06:41.057Z,93584.16
2022-10-09T03:09:23.700Z,93585.09
2022-10-09T03:12:06.641Z,93583.59
2022-10-09T03:14:49.307Z,93580.47
2022-10-09T03:17:32.044Z,93583.25
2022-10-09T03:20:14.736Z,93585.25
2022-10-09T03:22:58.988Z,93579.66
2022-10-09T03:25:41.672Z,93583.25
2022-10-09T03:28:24.551Z,93583.25
2022-10-09T03:31:07.816Z,93586.16
2022-10-09T03:33:50.646Z,93583.50
2022-10-09T03:36:33.303Z,93584.19
2022-10-09T03:39:17.364Z,93586.75
2022-10-09T03:41:59.982Z,93586.75
2022-10-09T03:44:42.676Z,93586.06
2022-10-09T03:47:25.415Z,93576.25
2022-10-09T03:50:08.634Z,93581.38
2022-10-09T03:52:51.707Z,93577.31
2022-10-09T03:55:35.953Z,93580.81
2022-10-09T03:58:18.629Z,93582.53
2022-10-09T04:01:01.381Z,93582.53
2022-10-09T04:03:44.075Z,93583.72
2022-10-09T04:06:26.750Z,93578.94
2022-10-09T04:09:09.961Z,93581.25
2022-10-09T04:11:54.121Z,93583.81
2022-10-09T04:14:36.770Z,93579.63
2022-10-09T04:17:19.499Z,93585.56
2022-10-09T04:20:02.198Z,93584.88
2022-10-09T04:22:44.880Z,93580.56
2022-10-09T04:25:27.630Z,93584.88
2022-10-09T04:28:11.747Z,93588.34
2022-10-09T04:30:54.409Z,93591.84
2022-10-09T04:33:37.098Z,93586.03
2022-10-09T04:36:19.746Z,93591.63
2022-10-09T04:39:02.448Z,93588.09
2022-10-09T04:41:45.170Z,93587.31
2022-10-09T04:44:29.210Z,93588.94
2022-10-09T04:47:11.943Z,93586.59
2022-10-09T04:49:54.628Z,93592.66
2022-10-09T04:52:37.402Z,93594.28
2022-10-09T04:55:20.053Z,93589.16
2022-10-09T04:58:02.705Z,93589.28
2022-10-09T05:00:47.512Z,93585.19
2022-10-09T05:03:30.242Z,93583.91
2022-10-09T05:06:13.482Z,93582.41
2022-10-09T05:08:56.417Z,93585.88
2022-10-09T05:11:42.434Z,93577.50
2022-10-09T05:14:25.761Z,93582.75
2022-10-09T05:17:14.224Z,93585.41
2022-10-09T05:19:57.319Z,93587.50
2022-10-09T05:22:39.992Z,93584.91
2022-10-09T05:25:22.616Z,93591.34
2022-10-09T05:28:06.382Z,93587.06
2022-10-09T05:30:49.148Z,93588.47
2022-10-09T05:33:33.218Z,93590.69
2022-10-09T05:36:16.588Z,93588.72
2022-10-09T05:39:01.196Z,93601.06
2022-10-09T05:41:43.940Z,93593.06
2022-10-09T05:44:26.642Z,93594.78
2022-10-09T05:47:09.295Z,93599.81
2022-10-09T05:49:53.297Z,93597.03
2022-10-09T05:52:36.563Z,93602.34
2022-10-09T05:55:19.266Z,93595.50
2022-10-09T05:58:02.003Z,93600.38
2022-10-09T06:00:44.672Z,93603.53
2022-10-09T06:03:27.349Z,93601.81
2022-10-09T06:06:11.544Z,93610.19
2022-10-09T06:08:54.750Z,93610.75
2022-10-09T06:11:38.356Z,93610.63
2022-10-09T06:14:22.207Z,93611.25
2022-10-09T06:17:05.134Z,93612.53
2022-10-09T06:19:47.891Z,93615.56
2022-10-09T06:22:31.937Z,93621.50
2022-10-09T06:25:14.664Z,93624.63
2022-10-09T06:27:57.320Z,93628.47
2022-10-09T06:30:40.073Z,93618.94
2022-10-09T06:33:22.810Z,93625.47
2022-10-09T06:36:10.350Z,93628.59
2022-10-09T06:38:54.960Z,93630.94
2022-10-09T06:41:37.690Z,93644.22
2022-10-09T06:44:38.594Z,93643.16
2022-10-09T06:47:21.264Z,93642.00
2022-10-09T06:50:03.928Z,93643.66
2022-10-09T06:52:47.037Z,93648.31
2022-10-09T06:55:31.306Z,93651.31
2022-10-09T06:58:13.971Z,93648.31
2022-10-09T07:01:03.713Z,93648.66
2022-10-09T07:03:47.046Z,93654.97
2022-10-09T07:06:30.755Z,93652.59
2022-10-09T07:09:14.532Z,93656.22
2022-10-09T07:11:58.569Z,93652.84
2022-10-09T07:14:41.243Z,93652.00
2022-10-09T07:17:23.914Z,93660.38
2022-10-09T07:20:06.978Z,93656.97
2022-10-09T07:22:50.004Z,93650.88
2022-10-09T07:25:32.946Z,93656.53
2022-10-09T07:28:17.351Z,93649.88
2022-10-09T07:31:03.235Z,93655.88
2022-10-09T07:33:47.824Z,93647.09
2022-10-09T07:36:30.474Z,93639.97
2022-10-09T07:39:13.240Z,93638.78
2022-10-09T07:41:55.880Z,93643.00
2022-10-09T07:44:39.937Z,93637.25
2022-10-09T07:47:22.593Z,93643.38
2022-10-09T07:50:05.775Z,93632.59
2022-10-09T07:52:48.660Z,93636.16
2022-10-09T07:55:31.487Z,93627.69
2022-10-09T07:58:14.208Z,93629.50
2022-10-09T08:00:58.223Z,93622.72
2022-10-09T08:03:40.943Z,93621.44
2022-10-09T08:06:23.890Z,93621.59
2022-10-09T08:09:07.488Z,93618.25
2022-10-09T08:11:50.247Z,93622.59
2022-10-09T08:14:33.354Z,93617.47
2022-10-09T08:17:17.899Z,93625.59
2022-10-09T08:20:00.987Z,93619.53
2022-10-09T08:23:13.261Z,93627.25
2022-10-09T08:25:56.230Z,93625.50
2022-10-09T08:28:39.175Z,93624.41
2022-10-09T08:31:23.299Z,93617.53
2022-10-09T08:34:06.698Z,93614.56
2022-10-09T08:36:49.606Z,93608.47
2022-10-09T08:39:33.904Z,93610.47
2022-10-09T08:42:29.372Z,93613.97
2022-10-09T08:45:16.666Z,93614.09
2022-10-09T08:48:03.738Z,93620.78
2022-10-09T08:50:50.956Z,93619.75
2022-10-09T08:53:39.792Z,93620.69
2022-10-09T08:56:24.855Z,93623.34
2022-10-09T08:59:10.010Z,93624.53
2022-10-09T09:02:02.676Z,93627.09
2022-10-09T09:04:56.887Z,93622.56
2022-10-09T09:07:47.106Z,93622.25
2022-10-09T09:10:41.300Z,93626.16
2022-10-09T09:13:41.842Z,93621.09
2022-10-09T09:16:34.493Z,93620.38
2022-10-09T09:19:36.380Z,93622.41
2022-10-09T09:22:19.392Z,93620.69
2022-10-09T09:25:08.760Z,93620.56
2022-10-09T09:27:53.867Z,93612.53
2022-10-09T09:30:45.308Z,93620.03
2022-10-09T09:33:43.602Z,93613.28
2022-10-09T09:36:32.352Z,93607.50
2022-10-09T09:42:20.944Z,93610.38
2022-10-09T09:45:07.331Z,93605.09
2022-10-09T09:47:55.947Z,93606.38
2022-10-09T09:50:50.406Z,93604.31
2022-10-09T09:53:44.723Z,93599.00
2022-10-09T09:56:59.705Z,93597.44
2022-10-09T09:59:43.397Z,93605.84
2022-10-09T10:02:27.836Z,93604.72
2022-10-09T10:05:21.987Z,93592.25
2022-10-09T10:08:21.742Z,93597.41
2022-10-09T10:11:07.774Z,93598.88
2022-10-09T10:13:51.019Z,93594.19
2022-10-09T10:16:38.181Z,93595.00
2022-10-09T10:19:24.413Z,93597.41
2022-10-09T10:22:24.726Z,93590.47
2022-10-09T10:25:16.728Z,93594.88
2022-10-09T10:28:05.098Z,93593.72
2022-10-09T10:30:49.616Z,93587.41
2022-10-09T10:33:34.854Z,93596.63
2022-10-09T10:36:17.866Z,93591.94
2022-10-09T10:39:09.289Z,93585.47
2022-10-09T10:41:56.811Z,93582.06
2022-10-09T10:44:48.500Z,93587.75
2022-10-09T10:47:38.020Z,93577.56
2022-10-09T10:50:21.949Z,93576.72
2022-10-09T10:53:14.106Z,93578.16
2022-10-09T10:56:05.023Z,93578.69
2022-10-09T10:58:59.361Z,93579.16
2022-10-09T11:01:53.663Z,93571.72
2022-10-09T11:04:48.418Z,93567.34
2022-10-09T11:07:42.153Z,93568.94
2022-10-09T11:10:31.435Z,93566.69
2022-10-09T11:13:21.732Z,93560.34
2022-10-09T11:16:19.154Z,93545.47
2022-10-09T11:19:14.139Z,93536.38
2022-10-09T11:22:03.437Z,93535.28
2022-10-09T11:25:19.641Z,93535.28
2022-10-09T11:28:06.116Z,93532.72
2022-10-09T11:30:55.256Z,93525.25
2022-10-09T11:33:43.871Z,93524.94
2022-10-09T11:36:33.753Z,93528.97
2022-10-09T11:39:19.713Z,93518.44
2022-10-09T11:42:03.965Z,93516.81
2022-10-09T11:44:54.887Z,93512.81
2022-10-09T11:47:47.962Z,93508.41
2022-10-09T11:50:53.156Z,93506.81
2022-10-09T11:53:38.560Z,93502.75
2022-10-09T11:56:25.447Z,93504.84
2022-10-09T11:59:08.754Z,93495.28
2022-10-09T12:01:51.661Z,93499.84
2022-10-09T12:07:42.952Z,93492.53
2022-10-09T12:10:29.550Z,93486.91
2022-10-09T12:13:30.307Z,93491.44
2022-10-09T12:16:36.633Z,93491.59
2022-10-09T12:19:23.431Z,93481.53
2022-10-09T12:22:14.133Z,93484.78
2022-10-09T12:25:00.091Z,93483.00
2022-10-09T12:27:43.163Z,93473.31
2022-10-09T12:30:30.480Z,93473.47
2022-10-09T12:33:22.467Z,93472.97
2022-10-09T12:36:07.951Z,93455.81
2022-10-09T12:38:52.236Z,93463.44
2022-10-09T12:41:36.708Z,93457.63
2022-10-09T12:44:30.011Z,93450.03
2022-10-09T12:47:20.295Z,93461.34
2022-10-09T12:50:13.645Z,93461.00
2022-10-09T12:52:59.278Z,93451.31
2022-10-09T12:55:45.969Z,93453.25
2022-10-09T12:58:32.015Z,93445.00
2022-10-09T13:01:17.220Z,93443.53
2022-10-09T13:04:03.521Z,93441.75
2022-10-09T13:06:49.936Z,93445.94
2022-10-09T13:09:37.082Z,93435.28
2022-10-09T13:12:25.057Z,93431.25
2022-10-09T13:15:28.322Z,93427.03
2022-10-09T13:18:20.832Z,93421.53
2022-10-09T13:21:07.032Z,93417.19
2022-10-09T13:23:50.254Z,93425.09
2022-10-09T13:26:33.165Z,93420.56
2022-10-09T13:29:17.438Z,93420.56
2022-10-09T13:32:00.346Z,93410.38
2022-10-09T13:34:43.385Z,93411.03
2022-10-09T13:37:27.782Z,93414.28
2022-10-09T13:40:15.492Z,93416.69
2022-10-09T13:43:03.343Z,93408.78
2022-10-09T13:45:47.592Z,93406.50
2022-10-09T13:48:31.487Z,93396.97
2022-10-09T13:51:14.462Z,93394.88
2022-10-09T13:53:57.334Z,93398.41
2022-10-09T13:56:40.195Z,93388.06
2022-10-09T13:59:24.506Z,93390.16
2022-10-09T14:02:08.691Z,93393.84
2022-10-09T14:04:51.569Z,93384.47
2022-10-09T14:07:34.504Z,93381.09
2022-10-09T14:10:21.699Z,93381.22
2022-10-09T14:13:06.644Z,93365.41
2022-10-09T14:15:49.584Z,93362.81
2022-10-09T14:18:34.649Z,93364.25
2022-10-09T14:21:17.508Z,93363.91
2022-10-09T14:24:02.326Z,93366.00
2022-10-09T14:26:48.397Z,93364.22
2022-10-09T14:29:34.428Z,93358.72
2022-10-09T14:32:17.214Z,93358.72
2022-10-09T14:35:01.433Z,93359.03
2022-10-09T14:37:44.383Z,93348.34
2022-10-09T14:40:27.239Z,93354.00
2022-10-09T14:43:10.163Z,93357.69
2022-10-09T14:46:02.568Z,93349.44
2022-10-09T14:48:48.588Z,93344.91
2022-10-09T14:51:36.724Z,93334.09
2022-10-09T14:54:19.900Z,93332.78
2022-10-09T14:57:02.702Z,93327.09
2022-10-09T14:59:46.238Z,93329.38
2022-10-09T15:02:29.214Z,93329.84
2022-10-09T15:05:12.038Z,93336.28
2022-10-09T15:07:56.302Z,93333.34
2022-10-09T15:10:39.465Z,93329.44
2022-10-09T15:13:22.352Z,93323.59
2022-10-09T15:16:07.600Z,93324.72
2022-10-09T15:18:52.058Z,93320.66
2022-10-09T15:21:36.180Z,93311.78
2022-10-09T15:24:20.392Z,93309.13
2022-10-09T15:27:03.282Z,93304.09
2022-10-09T15:29:46.098Z,93309.84
2022-10-09T15:32:29.014Z,93301.91
2022-10-09T15:35:11.876Z,93295.44
2022-10-09T15:37:55.837Z,93296.06
2022-10-09T15:40:45.833Z,93289.38
2022-10-09T15:43:28.714Z,93286.94
2022-10-09T15:46:11.590Z,93274.75
2022-10-09T15:48:55.056Z,93275.88
2022-10-09T15:51:38.539Z,93275.34
2022-10-09T15:54:21.450Z,93275.13
2022-10-09T15:57:05.739Z,93272.19
2022-10-09T15:59:48.551Z,93280.66
2022-10-09T16:02:31.433Z,93278.25
2022-10-09T16:05:14.305Z,93282.25
2022-10-09T16:07:57.272Z,93274.97
2022-10-09T16:10:46.417Z,93272.97
2022-10-09T16:13:38.550Z,93270.84
2022-10-09T16:16:23.791Z,93267.50
2022-10-09T16:19:06.848Z,93266.44
2022-10-09T16:21:50.308Z,93263.19
2022-10-09T16:24:33.116Z,93266.34
2022-10-09T16:27:16.007Z,93264.06
2022-10-09T16:30:00.266Z,93268.56
2022-10-09T16:32:43.175Z,93268.84
2022-10-09T16:35:26.337Z,93260.09
2022-10-09T16:38:09.190Z,93262.00
2022-10-09T16:41:07.874Z,93264.06
2022-10-09T16:43:52.475Z,93257.56
2022-10-09T16:46:36.728Z,93264.63
2022-10-09T16:49:22.663Z,93271.28
2022-10-09T16:52:07.825Z,93268.03
2022-10-09T16:54:50.823Z,93269.13
2022-10-09T16:57:33.772Z,93270.34
2022-10-09T17:00:19.304Z,93267.38
2022-10-09T17:03:03.964Z,93266.06
2022-10-09T17:05:46.866Z,93261.22
2022-10-09T17:08:31.133Z,93265.81
2022-10-09T17:11:16.151Z,93266.09
2022-10-09T17:13:59.023Z,93266.25
2022-10-09T17:16:43.406Z,93262.88
2022-10-09T17:19:28.110Z,93265.75
2022-10-09T17:22:11.029Z,93257.63
2022-10-09T17:24:53.919Z,93257.50
2022-10-09T17:27:36.766Z,93256.69
2022-10-09T17:30:19.675Z,93264.41
2022-10-09T17:33:03.506Z,93254.56
2022-10-09T17:35:47.990Z,93257.13
2022-10-09T17:38:30.952Z,93260.78
2022-10-09T17:41:15.319Z,93256.59
2022-10-09T17:43:58.409Z,93259.19
2022-10-09T17:46:41.286Z,93251.06
2022-10-09T17:49:24.196Z,93244.81
2022-10-09T17:52:08.483Z,93243.06
2022-10-09T17:54:51.509Z,93250.91
2022-10-09T17:57:34.448Z,93246.22
2022-10-09T18:00:21.702Z,93249.72
2022-10-09T18:03:05.338Z,93251.34
2022-10-09T18:05:50.243Z,93242.16
2022-10-09T18:08:34.613Z,93247.84
2022-10-09T18:11:17.873Z,93246.59
2022-10-09T18:14:01.603Z,93241.31
2022-10-09T18:16:45.555Z,93238.44
2022-10-09T18:19:29.588Z,93231.84
2022-10-09T18:22:12.443Z,93230.56
2022-10-09T18:24:56.744Z,93224.47
2022-10-09T18:27:39.715Z,93225.16
2022-10-09T18:30:22.711Z,93227.59
2022-10-09T18:33:05.752Z,93219.56
2022-10-09T18:35:48.863Z,93228.38
2022-10-09T18:38:31.815Z,93217.16
2022-10-09T18:41:16.834Z,93213.78
2022-10-09T18:44:01.064Z,93217.31
2022-10-09T18:46:47.615Z,93211.50
2022-10-09T18:49:32.152Z,93202.81
2022-10-09T18:52:16.120Z,93198.75
2022-10-09T18:54:59.844Z,93196.19
2022-10-09T18:57:44.784Z,93196.84
2022-10-09T19:00:27.977Z,93194.94
2022-10-09T19:03:10.878Z,93187.38
2022-10-09T19:05:53.990Z,93189.00
2022-10-09T19:08:37.900Z,93189.53
2022-10-09T19:11:20.803Z,93192.88
2022-10-09T19:14:05.274Z,93187.63
2022-10-09T19:16:48.467Z,93185.03
2022-10-09T19:19:31.307Z,93186.66
2022-10-09T19:22:17.379Z,93176.50
2022-10-09T19:25:02.290Z,93181.94
2022-10-09T19:27:45.637Z,93177.59
2022-10-09T19:30:29.863Z,93174.09
2022-10-09T19:33:13.624Z,93169.88
2022-10-09T19:35:57.388Z,93170.06
2022-10-09T19:38:40.956Z,93169.38
2022-10-09T19:41:24.642Z,93164.38
2022-10-09T19:44:07.524Z,93164.38
2022-10-09T19:46:51.820Z,93167.47
2022-10-09T19:49:35.290Z,93167.31
2022-10-09T19:52:18.356Z,93162.19
2022-10-09T19:55:01.819Z,93170.69
2022-10-09T19:57:44.768Z,93163.78
2022-10-09T20:00:27.790Z,93160.56
2022-10-09T20:03:12.055Z,93153.63
2022-10-09T20:05:54.947Z,93156.88
2022-10-09T20:08:38.747Z,93154.16
2022-10-09T20:11:22.233Z,93146.97
2022-10-09T20:14:06.327Z,93147.75
2022-10-09T20:16:49.178Z,93151.16
2022-10-09T20:19:33.426Z,93150.19
2022-10-09T20:22:16.280Z,93150.19
2022-10-09T20:24:59.303Z,93151.94
2022-10-09T20:27:42.224Z,93147.75
2022-10-09T20:30:25.141Z,93146.28
2022-10-09T20:33:08.275Z,93145.63
2022-10-09T20:35:52.570Z,93143.22
2022-10-09T20:38:35.963Z,93143.34
2022-10-09T20:41:19.102Z,93136.59
2022-10-09T20:44:03.504Z,93133.50
2022-10-09T20:46:46.344Z,93130.25
2022-10-09T20:49:29.371Z,93132.47
2022-10-09T20:52:13.643Z,93126.00
2022-10-09T20:54:56.562Z,93125.06
2022-10-09T20:57:40.315Z,93130.88
2022-10-09T21:00:23.182Z,93120.56
2022-10-09T21:03:09.266Z,93119.91
2022-10-09T21:05:54.740Z,93122.63
2022-10-09T21:08:39.343Z,93130.31
2022-10-09T21:11:22.265Z,93126.28
2022-10-09T21:14:05.146Z,93136.72
2022-10-09T21:16:47.991Z,93134.44
2022-10-09T21:19:30.863Z,93133.13
2022-10-09T21:22:13.759Z,93132.44
2022-10-09T21:24:57.980Z,93136.13
2022-10-09T21:27:40.785Z,93135.47
2022-10-09T21:30:23.652Z,93137.50
2022-10-09T21:33:06.660Z,93137.97
2022-10-09T21:35:54.008Z,93135.00
2022-10-09T21:38:36.848Z,93133.66
2022-10-09T21:41:21.081Z,93127.19
2022-10-09T21:44:04.777Z,93126.38
2022-10-09T21:46:47.692Z,93122.19
2022-10-09T21:49:30.653Z,93126.38
2022-10-09T21:52:13.569Z,93125.28
2022-10-09T21:54:56.444Z,93117.56
2022-10-09T21:57:40.654Z,93112.44
2022-10-09T22:00:23.575Z,93109.84
2022-10-09T22:03:06.482Z,93110.13
2022-10-09T22:05:49.418Z,93108.53
2022-10-09T22:08:32.358Z,93105.31
2022-10-09T22:11:15.652Z,93107.22
2022-10-09T22:13:59.918Z,93104.75
2022-10-09T22:16:42.859Z,93106.66
2022-10-09T22:19:25.666Z,93105.88
2022-10-09T22:22:08.956Z,93098.44
2022-10-09T22:24:51.939Z,93090.22
2022-10-09T22:27:34.853Z,93094.53
2022-10-09T22:30:19.086Z,93101.97
2022-10-09T22:33:02.030Z,93092.06
2022-10-09T22:35:45.756Z,93099.34
2022-10-09T22:38:28.633Z,93094.88
2022-10-09T22:41:13.799Z,93089.06
2022-10-09T22:43:58.173Z,93088.28
2022-10-09T22:46:44.311Z,93085.69
2022-10-09T22:49:27.554Z,93088.28
2022-10-09T22:52:10.435Z,93077.31
2022-10-09T22:54:53.649Z,93079.91
2022-10-09T22:57:36.591Z,93070.41
2022-10-09T23:00:19.667Z,93069.63
2022-10-09T23:03:04.143Z,93080.84
2022-10-09T23:05:47.068Z,93066.38
2022-10-09T23:08:29.936Z,93069.63
2022-10-09T23:11:14.348Z,93065.28
2022-10-09T23:13:58.917Z,93063.53
2022-10-09T23:16:42.356Z,93064.31
2022-10-09T23:19:26.660Z,93067.72
2022-10-09T23:22:09.506Z,93056.47
2022-10-09T23:24:52.353Z,93051.97
2022-10-09T23:27:35.278Z,93058.44
2022-10-09T23:30:18.250Z,93053.84
2022-10-09T23:33:01.095Z,93052.75
2022-10-09T23:35:45.419Z,93061.13
2022-10-09T23:38:28.276Z,93066.78
2022-10-09T23:41:13.986Z,93056.34
2022-10-09T23:43:57.319Z,93058.63
2022-10-09T23:46:40.219Z,93061.19
2022-10-09T23:49:23.108Z,93058.31
2022-10-09T23:52:07.311Z,93053.19
2022-10-09T23:54:50.187Z,93053.19
2022-10-09T23:57:34.776Z,93057.38
